Time;durP1;ratioP1;P1;durP2;ratioP2;P2;SDS_P1;SDS_P2;PMS_P1;PMS_P2;Temp;Humidity;BMP_temperature;BMP_pressure;BME280_temperature;BME280_humidity;BME280_pressure;Samples;Min_cycle;Max_cycle;Signal;HPM_P1;HPM_P2
2022/04/29 00:01:55;;;;;;;11.43;5.10;;;;;;;5.61;94.68;103270.22;5093687;28;20028;-69
2022/04/29 00:04:21;;;;;;;15.90;6.57;;;;;;;5.58;94.37;103263.28;5093570;28;20154;-69
2022/04/29 00:06:46;;;;;;;8.20;5.20;;;;;;;5.59;94.45;103265.00;5093527;28;20028;-69
2022/04/29 00:09:11;;;;;;;19.08;5.57;;;;;;;5.59;94.18;103265.00;5093380;28;20032;-69
2022/04/29 00:11:37;;;;;;;21.15;6.18;;;;;;;5.62;94.61;103259.63;5093418;28;20029;-69
2022/04/29 00:14:02;;;;;;;9.88;6.10;;;;;;;5.63;95.17;103249.94;5093242;28;20032;-69
2022/04/29 00:16:28;;;;;;;13.60;5.72;;;;;;;5.61;95.37;103250.00;5093325;28;20153;-70
2022/04/29 00:18:53;;;;;;;11.70;5.32;;;;;;;5.60;95.47;103250.03;5075220;28;20089;-69
2022/04/29 00:21:18;;;;;;;12.40;5.30;;;;;;;5.60;95.82;103245.63;5093098;28;20060;-69
2022/04/29 00:23:44;;;;;;;12.05;5.80;;;;;;;5.59;95.75;103246.50;5093230;28;20043;-69
2022/04/29 00:26:09;;;;;;;12.77;6.18;;;;;;;5.56;95.64;103238.69;5074919;28;20031;-69
2022/04/29 00:28:35;;;;;;;17.23;6.30;;;;;;;5.55;95.69;103252.78;5093323;28;20028;-70
2022/04/29 00:31:00;;;;;;;16.15;6.03;;;;;;;5.53;95.60;103244.06;5093336;28;20352;-69
2022/04/29 00:33:27;;;;;;;10.10;5.55;;;;;;;5.51;95.70;103237.09;5092856;28;20039;-70
2022/04/29 00:35:52;;;;;;;14.18;6.00;;;;;;;5.50;96.12;103246.81;5093126;28;20484;-69
2022/04/29 00:38:18;;;;;;;11.65;6.10;;;;;;;5.45;95.82;103246.09;5092571;28;20039;-69
2022/04/29 00:40:44;;;;;;;12.35;6.15;;;;;;;5.41;95.87;103240.03;5092750;28;20405;-69
2022/04/29 00:43:11;;;;;;;14.25;6.63;;;;;;;5.37;95.97;103237.53;5092672;28;20492;-69
2022/04/29 00:45:36;;;;;;;15.38;7.43;;;;;;;5.36;96.30;103239.31;5092720;28;20081;-69
2022/04/29 00:48:02;;;;;;;15.27;7.05;;;;;;;5.36;96.31;103230.50;5092633;28;20040;-69
2022/04/29 00:50:29;;;;;;;17.27;8.13;;;;;;;5.34;96.66;103233.19;5092712;28;20372;-69
2022/04/29 00:52:56;;;;;;;10.25;7.38;;;;;;;5.35;96.70;103234.09;5092511;28;20034;-69
2022/04/29 00:55:23;;;;;;;11.38;6.57;;;;;;;5.35;96.69;103236.72;5091788;28;20375;-69
2022/04/29 00:58:07;;;;;;;7.78;6.70;;;;;;;5.36;96.37;103235.78;5092090;28;20052;-69
2022/04/29 01:00:33;;;;;;;10.45;6.55;;;;;;;5.36;95.61;103228.75;5092097;28;20028;-69
2022/04/29 01:03:00;;;;;;;14.00;6.28;;;;;;;5.37;95.55;103221.69;5092357;28;20051;-69
2022/04/29 01:05:26;;;;;;;16.80;6.60;;;;;;;5.36;95.23;103226.13;5091815;28;20103;-70
2022/04/29 01:07:52;;;;;;;12.38;6.00;;;;;;;5.35;94.86;103226.16;5092202;28;20038;-69
2022/04/29 01:10:20;;;;;;;13.13;5.68;;;;;;;5.34;94.51;103230.56;5092726;28;20059;-69
2022/04/29 01:12:49;;;;;;;12.02;5.85;;;;;;;5.30;94.14;103224.50;5091786;28;20020;-68
2022/04/29 01:15:17;;;;;;;11.90;5.68;;;;;;;5.29;93.86;103217.50;5092059;28;20027;-69
2022/04/29 01:17:45;;;;;;;14.65;5.70;;;;;;;5.28;93.75;103223.72;5092443;28;20028;-69
2022/04/29 01:20:14;;;;;;;12.07;5.68;;;;;;;5.27;93.87;103219.34;5073069;28;20039;-68
2022/04/29 01:22:40;;;;;;;10.27;5.53;;;;;;;5.28;93.51;103215.78;5091323;28;20028;-69
2022/04/29 01:25:05;;;;;;;11.90;5.22;;;;;;;5.27;93.25;103206.13;5091867;28;20028;-68
2022/04/29 01:27:31;;;;;;;16.80;6.43;;;;;;;5.26;93.30;103214.94;5091532;28;20476;-68
2022/04/29 01:30:11;;;;;;;9.98;5.13;;;;;;;5.25;92.74;103213.22;5091456;28;20103;-68
2022/04/29 01:32:39;;;;;;;7.63;4.65;;;;;;;5.23;92.49;103216.84;5091425;28;20460;-68
2022/04/29 01:35:06;;;;;;;15.93;5.88;;;;;;;5.20;92.37;103212.50;5091571;28;20028;-68
2022/04/29 01:37:31;;;;;;;13.18;5.55;;;;;;;5.17;92.65;103212.59;5091398;28;20020;-69
2022/04/29 01:39:57;;;;;;;8.95;5.60;;;;;;;5.18;92.72;103208.16;5091671;28;20031;-69
2022/04/29 01:42:23;;;;;;;10.75;5.38;;;;;;;5.13;92.98;103200.41;5091548;28;20093;-70
2022/04/29 01:44:49;;;;;;;8.00;5.57;;;;;;;5.11;92.78;103202.22;5091569;28;20032;-69
2022/04/29 01:47:14;;;;;;;13.65;5.22;;;;;;;5.06;92.51;103198.84;5091213;28;20106;-68
2022/04/29 01:49:40;;;;;;;8.63;5.55;;;;;;;5.02;92.15;103200.72;5091677;28;20388;-68
2022/04/29 01:52:06;;;;;;;11.40;5.72;;;;;;;4.98;92.57;103199.06;5091426;28;20340;-67
2022/04/29 01:54:31;;;;;;;12.55;5.78;;;;;;;4.96;92.74;103198.25;5091320;28;20047;-68
2022/04/29 01:56:57;;;;;;;10.85;5.78;;;;;;;4.90;92.60;103198.44;5091728;28;20397;-69
2022/04/29 01:59:22;;;;;;;10.57;5.20;;;;;;;4.85;92.82;103188.03;5090949;28;20031;-68
2022/04/29 02:01:48;;;;;;;13.02;5.72;;;;;;;4.81;93.46;103201.31;5091588;28;20062;-68
2022/04/29 02:04:14;;;;;;;14.43;5.93;;;;;;;4.76;93.75;103199.72;5091075;28;20469;-68
2022/04/29 02:06:40;;;;;;;13.07;6.07;;;;;;;4.74;93.84;103195.38;5091007;28;20121;-69
2022/04/29 02:09:06;;;;;;;12.18;6.85;;;;;;;4.70;93.79;103197.25;5072753;28;20036;-69
2022/04/29 02:11:32;;;;;;;10.63;5.82;;;;;;;4.69;93.87;103208.69;5091013;28;20035;-68
2022/04/29 02:13:57;;;;;;;11.13;5.90;;;;;;;4.67;94.10;103205.25;5090474;28;20036;-68
2022/04/29 02:16:23;;;;;;;16.98;6.07;;;;;;;4.66;94.10;103202.63;5090659;28;20495;-69
2022/04/29 02:18:49;;;;;;;17.90;6.25;;;;;;;4.63;94.06;103206.22;5072237;28;20348;-68
2022/04/29 02:21:14;;;;;;;14.77;6.13;;;;;;;4.63;94.27;103205.34;5090741;28;20038;-68
2022/04/29 02:23:40;;;;;;;11.68;5.85;;;;;;;4.59;94.14;103205.44;5090664;28;20440;-68
2022/04/29 02:26:05;;;;;;;12.07;6.65;;;;;;;4.57;94.66;103201.97;5090626;28;20067;-68
2022/04/29 02:28:32;;;;;;;13.40;6.20;;;;;;;4.61;94.74;103204.53;5091008;28;20024;-68
2022/04/29 02:30:58;;;;;;;11.25;6.03;;;;;;;4.61;94.90;103208.03;5091164;28;20054;-68
2022/04/29 02:33:23;;;;;;;17.83;6.50;;;;;;;4.61;94.86;103199.25;5090543;28;20028;-69
2022/04/29 02:35:49;;;;;;;15.63;6.07;;;;;;;4.65;94.91;103199.13;5090506;28;20055;-68
2022/04/29 02:38:15;;;;;;;14.23;6.07;;;;;;;4.70;94.62;103205.16;5090463;28;20032;-69
2022/04/29 02:40:40;;;;;;;12.85;6.32;;;;;;;4.75;94.18;103197.97;5090480;28;20039;-69
2022/04/29 02:43:06;;;;;;;14.60;5.90;;;;;;;4.83;93.81;103189.81;5091002;28;20456;-69
2022/04/29 02:45:32;;;;;;;16.50;6.07;;;;;;;4.86;92.81;103184.47;5090357;28;20036;-68
2022/04/29 02:47:58;;;;;;;14.07;5.20;;;;;;;4.90;92.61;103178.19;5090522;28;20105;-69
2022/04/29 02:50:23;;;;;;;10.00;5.32;;;;;;;4.89;92.50;103176.47;5090520;28;20115;-69
2022/04/29 02:52:48;;;;;;;12.25;5.53;;;;;;;4.91;92.16;103172.03;5089880;28;20043;-70
2022/04/29 02:55:14;;;;;;;9.80;5.60;;;;;;;4.91;92.22;103179.03;5090753;28;20024;-68
2022/04/29 02:57:39;;;;;;;20.27;5.68;;;;;;;4.90;92.27;103175.56;5090378;28;20024;-71
2022/04/29 03:00:05;;;;;;;13.05;5.40;;;;;;;4.90;92.27;103182.63;5090380;28;20032;-68
2022/04/29 03:02:31;;;;;;;15.90;6.05;;;;;;;4.89;92.61;103188.78;5090418;28;20474;-68
2022/04/29 03:04:56;;;;;;;14.05;5.47;;;;;;;4.84;92.65;103196.00;5090425;28;20043;-69
2022/04/29 03:07:21;;;;;;;16.42;5.47;;;;;;;4.81;92.90;103189.03;5090473;28;20024;-68
2022/04/29 03:09:50;;;;;;;9.05;5.22;;;;;;;4.78;93.10;103189.09;5071902;28;20032;-69
2022/04/29 03:12:15;;;;;;;9.25;5.40;;;;;;;4.79;93.41;103190.81;5089861;28;20023;-69
2022/04/29 03:14:41;;;;;;;16.27;5.22;;;;;;;4.76;93.12;103181.25;5090649;28;20142;-69
2022/04/29 03:18:17;;;;;;;16.65;7.28;;;;;;;4.77;93.28;103176.81;5090783;28;20032;-69
2022/04/29 03:19:52;;;;;;;14.40;5.85;;;;;;;4.78;93.38;103178.56;5093794;28;20044;-71
2022/04/29 03:22:18;;;;;;;18.33;5.90;;;;;;;4.81;93.50;103172.31;5094224;28;20074;-69
2022/04/29 03:24:43;;;;;;;8.85;5.25;;;;;;;4.83;93.16;103171.38;5093927;28;20067;-71
2022/04/29 03:27:08;;;;;;;12.15;6.18;;;;;;;4.88;93.06;103176.50;5094681;28;20096;-69
2022/04/29 03:29:34;;;;;;;12.18;5.40;;;;;;;4.87;93.14;103182.72;5094144;28;20036;-69
2022/04/29 03:31:59;;;;;;;10.77;5.50;;;;;;;4.87;93.06;103178.28;5093913;28;20413;-69
2022/04/29 03:34:24;;;;;;;10.45;5.20;;;;;;;4.87;93.25;103172.16;5094324;28;20185;-69
2022/04/29 03:36:50;;;;;;;11.13;5.53;;;;;;;4.85;93.59;103172.19;5093614;28;20035;-69
2022/04/29 03:39:15;;;;;;;16.05;6.50;;;;;;;4.83;93.80;103155.53;5075853;28;20028;-69
2022/04/29 03:41:41;;;;;;;13.43;7.25;;;;;;;4.82;93.51;103153.84;5093745;28;20106;-68
2022/04/29 03:44:06;;;;;;;18.10;5.82;;;;;;;4.81;93.83;103151.22;5093673;28;20032;-69
2022/04/29 03:46:32;;;;;;;13.20;5.60;;;;;;;4.80;93.96;103152.13;5094107;28;20165;-70
2022/04/29 03:51:41;;;;;;;14.07;6.00;;;;;;;4.73;94.23;103141.78;5093969;28;20139;-69
2022/04/29 03:54:06;;;;;;;14.75;5.80;;;;;;;4.69;94.47;103140.13;5075447;28;20039;-69
2022/04/29 03:56:32;;;;;;;14.30;6.10;;;;;;;4.69;94.67;103132.22;5093470;28;20034;-69
2022/04/29 03:58:57;;;;;;;14.90;5.93;;;;;;;4.66;94.85;103129.66;5092842;28;20483;-69
2022/04/29 04:01:23;;;;;;;13.20;6.45;;;;;;;4.64;94.90;103127.97;5093256;28;20395;-69
2022/04/29 04:03:48;;;;;;;12.63;6.38;;;;;;;4.60;95.00;103124.56;5093169;28;20373;-69
2022/04/29 04:08:58;;;;;;;11.50;6.95;;;;;;;4.53;95.12;103130.94;5093632;28;20054;-69
2022/04/29 04:11:23;;;;;;;14.75;6.20;;;;;;;4.47;95.22;103125.81;5093262;28;20123;-69
2022/04/29 04:13:48;;;;;;;13.32;6.55;;;;;;;4.44;95.54;103120.66;5093409;28;20545;-69
2022/04/29 04:16:14;;;;;;;13.98;6.68;;;;;;;4.40;95.78;103133.03;5093359;28;20042;-69
2022/04/29 04:18:39;;;;;;;13.30;6.35;;;;;;;4.39;95.92;103137.44;5092999;28;20465;-69
2022/04/29 04:21:05;;;;;;;20.35;6.75;;;;;;;4.37;96.19;103127.84;5092732;28;20028;-69
2022/04/29 04:23:30;;;;;;;21.20;7.22;;;;;;;4.37;96.35;103130.47;5092954;28;20043;-68
2022/04/29 04:25:57;;;;;;;11.27;6.35;;;;;;;4.38;96.51;103146.25;5093108;28;20025;-67
2022/04/29 04:28:22;;;;;;;14.32;5.97;;;;;;;4.41;96.71;103140.03;5093206;28;20051;-69
2022/04/29 04:30:48;;;;;;;13.32;6.75;;;;;;;4.41;96.27;103146.16;5092494;28;20032;-68
2022/04/29 04:33:13;;;;;;;17.83;6.43;;;;;;;4.44;96.52;103142.59;5093107;28;20105;-68
2022/04/29 04:35:38;;;;;;;13.18;6.70;;;;;;;4.47;96.25;103141.66;5092632;28;20047;-68
2022/04/29 04:38:04;;;;;;;7.13;6.07;;;;;;;4.47;96.00;103144.28;5093033;28;20048;-67
2022/04/29 04:40:29;;;;;;;9.55;6.20;;;;;;;4.50;95.93;103147.69;5092777;28;20032;-68
2022/04/29 04:42:54;;;;;;;17.52;6.35;;;;;;;4.51;95.87;103152.06;5074934;28;20441;-68
2022/04/29 04:45:20;;;;;;;16.15;6.18;;;;;;;4.55;95.68;103144.91;5092324;28;20043;-68
2022/04/29 04:47:45;;;;;;;15.35;6.28;;;;;;;4.61;95.59;103150.00;5092610;28;20048;-69
2022/04/29 04:50:11;;;;;;;14.05;6.72;;;;;;;4.65;95.65;103145.53;5092570;28;20115;-69
2022/04/29 04:52:38;;;;;;;14.85;6.57;;;;;;;4.68;95.44;103151.56;5092772;28;20031;-69
2022/04/29 04:55:06;;;;;;;12.75;6.50;;;;;;;4.74;95.33;103151.38;5093011;28;20093;-67
2022/04/29 04:57:32;;;;;;;14.85;5.72;;;;;;;4.80;95.21;103160.91;5092149;28;20122;-69
2022/04/29 04:59:58;;;;;;;15.52;5.78;;;;;;;4.82;94.82;103153.84;5092440;28;20116;-68
2022/04/29 05:02:23;;;;;;;13.35;5.63;;;;;;;4.86;95.00;103160.72;5092479;28;20468;-68
2022/04/29 05:04:48;;;;;;;9.68;5.32;;;;;;;4.88;94.97;103158.91;5092543;28;20097;-68
2022/04/29 05:07:14;;;;;;;13.38;5.40;;;;;;;4.93;94.76;103154.34;5092235;28;20466;-67
2022/04/29 05:09:39;;;;;;;14.82;5.82;;;;;;;4.99;94.41;103150.69;5092341;28;20114;-68
2022/04/29 05:12:05;;;;;;;13.10;5.00;;;;;;;5.05;94.13;103149.63;5092364;28;20356;-68
2022/04/29 05:14:30;;;;;;;15.07;6.03;;;;;;;5.14;93.73;103156.41;5091912;28;20487;-70
2022/04/29 05:16:56;;;;;;;9.05;5.10;;;;;;;5.23;93.38;103143.78;5091835;28;20440;-69
2022/04/29 05:19:21;;;;;;;13.68;5.03;;;;;;;5.33;92.84;103146.13;5092517;28;20077;-68
2022/04/29 05:21:47;;;;;;;18.00;5.50;;;;;;;5.44;92.00;103144.03;5092125;28;20051;-68
2022/04/29 05:24:12;;;;;;;12.65;5.97;;;;;;;5.55;91.62;103144.50;5073437;28;20028;-68
2022/04/29 05:26:37;;;;;;;11.07;5.20;;;;;;;5.69;91.07;103148.47;5091742;28;20047;-68
2022/04/29 05:29:03;;;;;;;13.45;5.13;;;;;;;5.80;90.90;103147.22;5091816;28;20032;-69
2022/04/29 05:31:28;;;;;;;14.75;5.20;;;;;;;5.94;90.26;103151.16;5091973;28;20036;-67
2022/04/29 05:33:55;;;;;;;14.82;5.45;;;;;;;6.04;89.88;103151.75;5091625;28;20032;-68
2022/04/29 05:36:21;;;;;;;11.85;4.72;;;;;;;6.15;89.35;103154.88;5091989;28;20064;-68
2022/04/29 05:44:14;;;;;;;14.43;4.68;;;;;;;6.46;88.30;103156.44;5091693;28;20519;-68
2022/04/29 05:46:40;;;;;;;10.65;4.32;;;;;;;6.49;86.88;103153.69;5091232;28;20033;-68
2022/04/29 05:49:05;;;;;;;11.95;4.97;;;;;;;6.49;85.70;103164.25;5090919;28;20481;-68
2022/04/29 05:51:31;;;;;;;12.63;4.63;;;;;;;6.55;85.81;103169.31;5091418;28;20032;-69
2022/04/29 05:53:56;;;;;;;7.82;4.22;;;;;;;6.52;85.11;103162.38;5091350;28;20028;-69
2022/04/29 05:56:22;;;;;;;11.13;4.07;;;;;;;6.59;84.79;103167.44;5091591;28;20402;-69
2022/04/29 05:58:47;;;;;;;13.77;4.32;;;;;;;6.66;84.89;103164.53;5091586;28;20361;-68
2022/04/29 06:01:12;;;;;;;12.45;4.03;;;;;;;6.72;84.61;103150.22;5072750;28;20201;-69
2022/04/29 06:03:38;;;;;;;12.00;3.92;;;;;;;6.81;84.45;103163.09;5091228;28;20059;-68
2022/04/29 06:06:03;;;;;;;13.30;4.40;;;;;;;6.86;83.87;103168.19;5090764;28;20437;-71
2022/04/29 06:08:29;;;;;;;13.35;4.88;;;;;;;6.91;83.40;103168.88;5090999;28;20036;-68
2022/04/29 06:10:54;;;;;;;18.13;4.50;;;;;;;6.99;83.56;103169.47;5091149;28;20421;-68
2022/04/29 06:13:20;;;;;;;13.80;4.75;;;;;;;7.13;82.91;103173.38;5090828;28;20085;-68
2022/04/29 06:15:45;;;;;;;19.50;3.95;;;;;;;7.18;82.19;103176.69;5090894;28;20387;-68
2022/04/29 06:18:11;;;;;;;14.80;4.15;;;;;;;7.34;82.72;103180.47;5091120;28;20472;-69
2022/04/29 06:20:36;;;;;;;10.43;3.38;;;;;;;7.47;81.85;103177.34;5090701;28;20059;-68
2022/04/29 06:23:01;;;;;;;13.40;4.13;;;;;;;7.56;81.59;103167.22;5090655;28;20086;-68
2022/04/29 06:25:27;;;;;;;13.63;4.18;;;;;;;7.59;80.44;103184.78;5090701;28;20024;-68
2022/04/29 06:27:52;;;;;;;13.27;4.00;;;;;;;7.74;80.96;103184.16;5090859;28;20480;-68
2022/04/29 06:30:18;;;;;;;10.32;3.67;;;;;;;7.87;80.32;103187.16;5090905;28;20036;-68
2022/04/29 06:32:43;;;;;;;11.70;3.78;;;;;;;7.93;79.30;103184.25;5090935;28;20111;-67
2022/04/29 06:35:09;;;;;;;10.07;3.63;;;;;;;7.98;78.66;103192.00;5090466;28;20032;-68
2022/04/29 06:37:35;;;;;;;15.52;4.45;;;;;;;8.10;79.07;103188.81;5072359;28;20119;-68
2022/04/29 06:40:01;;;;;;;15.10;4.35;;;;;;;8.13;77.89;103193.16;5090430;28;20126;-68
2022/04/29 06:42:27;;;;;;;12.35;4.30;;;;;;;8.14;78.10;103194.03;5090229;28;20186;-69
2022/04/29 06:44:52;;;;;;;14.38;4.72;;;;;;;8.13;78.08;103190.50;5090403;28;20074;-68
2022/04/29 06:47:18;;;;;;;11.43;4.43;;;;;;;8.09;77.20;103191.53;5089988;28;20388;-69
2022/04/29 06:49:43;;;;;;;12.30;4.50;;;;;;;8.10;77.85;103195.94;5091147;28;20153;-69
2022/04/29 06:52:09;;;;;;;12.75;4.25;;;;;;;7.99;76.74;103195.53;5089506;28;20035;-71
2022/04/29 06:54:34;;;;;;;12.57;4.25;;;;;;;7.89;77.75;103190.59;5090321;28;20039;-68
2022/04/29 06:57:00;;;;;;;15.10;4.82;;;;;;;7.90;78.25;103184.38;5072197;28;20059;-69
2022/04/29 06:59:26;;;;;;;11.40;3.75;;;;;;;7.86;77.83;103188.06;5071917;28;20039;-68
2022/04/29 07:01:51;;;;;;;9.20;4.07;;;;;;;7.81;77.78;103174.16;5090680;28;20526;-69
2022/04/29 07:04:17;;;;;;;10.88;3.97;;;;;;;7.88;78.05;103191.53;5090509;28;20157;-68
2022/04/29 07:06:42;;;;;;;10.18;3.53;;;;;;;8.00;78.60;103179.56;5089767;28;20032;-69
2022/04/29 07:09:08;;;;;;;17.48;4.22;;;;;;;8.07;78.01;103183.66;5090466;28;20068;-69
2022/04/29 07:11:33;;;;;;;10.38;4.00;;;;;;;8.09;78.11;103186.25;5090217;28;20401;-68
2022/04/29 07:13:59;;;;;;;13.38;4.03;;;;;;;8.14;77.34;103181.63;5089468;28;20032;-69
2022/04/29 07:16:24;;;;;;;13.98;4.47;;;;;;;8.20;77.42;103172.53;5089926;28;20481;-68
2022/04/29 07:18:49;;;;;;;17.75;4.40;;;;;;;8.11;77.60;103172.00;5089776;28;20034;-68
2022/04/29 07:21:14;;;;;;;13.88;4.97;;;;;;;8.15;78.49;103171.88;5089543;28;20158;-69
2022/04/29 07:23:40;;;;;;;18.55;4.65;;;;;;;8.18;77.98;103164.66;5089761;28;20127;-69
2022/04/29 07:26:05;;;;;;;15.18;4.05;;;;;;;8.17;77.17;103167.38;5089342;28;20038;-69
2022/04/29 07:28:31;;;;;;;15.20;4.30;;;;;;;8.10;76.78;103164.13;5089546;28;20061;-69
2022/04/29 07:30:57;;;;;;;11.82;3.92;;;;;;;7.86;76.96;103172.19;5089552;28;20020;-69
2022/04/29 07:33:23;;;;;;;13.15;4.40;;;;;;;7.94;77.43;103171.84;5089011;28;20460;-68
2022/04/29 07:44:03;;;;;;;18.75;4.32;;;;;;;8.35;75.50;103182.47;5089434;28;20128;-69
2022/04/29 07:46:29;;;;;;;11.77;3.78;;;;;;;8.49;75.67;103178.38;5089404;28;20528;-69
2022/04/29 07:48:54;;;;;;;13.43;3.47;;;;;;;8.67;74.78;103188.16;5089622;28;20043;-70
2022/04/29 07:51:20;;;;;;;10.85;3.63;;;;;;;8.68;73.79;103186.41;5089023;28;20028;-68
2022/04/29 07:53:45;;;;;;;13.77;3.10;;;;;;;8.72;73.27;103188.84;5088777;28;20052;-68
2022/04/29 07:56:11;;;;;;;14.50;4.00;;;;;;;8.80;74.03;103177.88;5089646;28;20176;-68
2022/04/29 07:58:37;;;;;;;12.10;3.60;;;;;;;8.86;73.85;103190.84;5088872;28;20467;-68
2022/04/29 08:01:06;;;;;;;12.73;4.40;;;;;;;8.97;74.19;103193.00;5089496;28;20028;-68
2022/04/29 08:03:31;;;;;;;9.85;3.53;;;;;;;9.00;73.21;103191.09;5090172;28;20093;-69
2022/04/29 08:05:57;;;;;;;15.63;4.00;;;;;;;9.13;72.47;103185.19;5092578;28;20036;-69
2022/04/29 08:08:22;;;;;;;12.55;4.03;;;;;;;9.04;72.88;103193.59;5093191;28;20028;-69
2022/04/29 08:10:48;;;;;;;19.00;4.03;;;;;;;9.11;73.05;103181.75;5092565;28;20115;-68
2022/04/29 08:13:13;;;;;;;13.50;3.30;;;;;;;9.24;72.51;103179.38;5092698;28;20020;-68
2022/04/29 08:15:43;;;;;;;10.85;3.50;;;;;;;9.33;72.28;103184.22;5092477;28;20098;-70
2022/04/29 08:18:08;;;;;;;12.27;3.92;;;;;;;9.44;71.67;103197.88;5092877;28;20040;-69
2022/04/29 08:20:34;;;;;;;10.77;3.60;;;;;;;9.58;71.65;103196.34;5093362;28;20043;-69
2022/04/29 08:22:59;;;;;;;14.60;4.20;;;;;;;9.50;71.75;103205.53;5093137;28;20032;-69
2022/04/29 08:25:24;;;;;;;8.90;3.60;;;;;;;9.39;71.44;103201.69;5092724;28;20028;-70
2022/04/29 08:27:51;;;;;;;12.65;3.55;;;;;;;9.24;70.91;103201.50;5093077;28;20126;-70
2022/04/29 08:30:17;;;;;;;9.50;3.55;;;;;;;9.31;71.36;103199.41;5092667;28;20077;-70
2022/04/29 08:32:45;;;;;;;7.93;3.72;;;;;;;9.30;72.43;103195.88;5092728;28;20032;-70
2022/04/29 08:35:12;;;;;;;13.90;3.95;;;;;;;9.41;72.44;103198.03;5092393;28;20375;-70
2022/04/29 08:37:38;;;;;;;10.55;4.93;;;;;;;9.42;71.92;103206.84;5092660;28;20024;-70
2022/04/29 08:40:05;;;;;;;9.38;3.60;;;;;;;9.28;70.92;103199.53;5092367;28;20348;-69
2022/04/29 08:42:37;;;;;;;6.63;3.30;;;;;;;9.38;70.48;103198.19;5092464;28;20476;-69
2022/04/29 08:45:09;;;;;;;14.25;4.13;;;;;;;9.43;71.93;103203.25;5092454;28;20146;-70
2022/04/29 08:47:36;;;;;;;12.90;4.20;;;;;;;9.45;71.66;103212.91;5073909;28;20127;-70
2022/04/29 08:50:04;;;;;;;7.53;3.78;;;;;;;9.50;71.35;103217.97;5092708;28;20337;-71
2022/04/29 08:52:30;;;;;;;9.63;3.72;;;;;;;9.63;71.06;103219.13;5092084;28;20028;-70
2022/04/29 09:00:26;;;;;;;10.23;4.20;;;;;;;9.73;71.06;103214.19;5092569;28;20156;-71
2022/04/29 09:02:52;;;;;;;7.20;3.50;;;;;;;9.77;70.26;103215.75;5092451;28;20028;-70
2022/04/29 09:05:17;;;;;;;11.43;4.20;;;;;;;9.85;69.38;103207.41;5092104;28;20040;-70
2022/04/29 09:08:00;;;;;;;9.20;3.75;;;;;;;10.03;69.74;103210.94;5092144;28;20448;-70
2022/04/29 09:10:29;;;;;;;8.65;3.83;;;;;;;9.94;68.82;103204.31;5092804;28;20222;-70
2022/04/29 09:12:55;;;;;;;7.50;3.90;;;;;;;10.10;68.21;103206.19;5091567;28;20032;-77
2022/04/29 09:15:21;;;;;;;8.65;3.75;;;;;;;10.20;68.35;103210.09;5091809;28;20479;-69
2022/04/29 09:17:48;;;;;;;9.00;3.90;;;;;;;10.29;68.69;103198.97;5094124;28;20047;-71
2022/04/29 09:20:21;;;;;;;11.45;3.78;;;;;;;10.06;67.99;103202.78;5092579;28;20063;-68
2022/04/29 09:22:50;;;;;;;12.50;4.30;;;;;;;10.20;68.54;103188.81;5092471;28;20062;-71
2022/04/29 09:25:17;;;;;;;13.20;4.07;;;;;;;10.34;68.16;103185.47;5073915;28;20176;-68
2022/04/29 09:28:02;;;;;;;10.85;4.13;;;;;;;10.40;68.73;103180.69;5091712;28;20428;-69
2022/04/29 09:30:37;;;;;;;10.15;4.15;;;;;;;10.46;67.06;103168.84;5091895;28;20043;-71
2022/04/29 09:33:03;;;;;;;8.98;3.95;;;;;;;10.55;67.78;103171.03;5091745;28;20024;-70
2022/04/29 09:35:36;;;;;;;8.57;3.75;;;;;;;10.77;68.22;103167.19;5091943;28;20111;-69
2022/04/29 09:40:49;;;;;;;13.00;3.80;;;;;;;10.83;67.30;103180.16;5091657;28;20051;-69
2022/04/29 09:43:15;;;;;;;10.52;5.00;;;;;;;10.91;67.87;103188.63;5073144;28;20040;-70
2022/04/29 09:45:40;;;;;;;11.05;3.75;;;;;;;10.98;66.19;103172.28;5091388;28;20062;-70
2022/04/29 09:48:09;;;;;;;11.38;3.83;;;;;;;10.91;66.19;103180.63;5091332;28;20126;-69
2022/04/29 09:50:50;;;;;;;13.32;3.85;;;;;;;10.86;65.22;103197.81;5090959;28;20485;-71
2022/04/29 09:53:16;;;;;;;;;;;;;;;10.93;66.48;103192.03;5091574;28;20035;-69
2022/04/29 09:55:42;;;;;;;8.90;3.20;;;;;;;11.03;66.66;103187.09;5091035;28;19935;-68
2022/04/29 09:58:09;;;;;;;7.50;3.08;;;;;;;11.20;65.92;103180.81;5091249;28;20381;-68
2022/04/29 10:00:35;;;;;;;12.23;2.80;;;;;;;11.32;63.90;103178.41;5090970;28;20032;-69
2022/04/29 10:03:03;;;;;;;6.00;3.20;;;;;;;11.48;64.87;103189.91;5091134;28;20039;-69
2022/04/29 10:05:31;;;;;;;11.70;3.55;;;;;;;11.42;63.11;103176.91;5091018;28;20456;-69
2022/04/29 10:07:57;;;;;;;8.68;3.10;;;;;;;11.62;63.01;103168.63;5091122;28;20039;-69
2022/04/29 10:10:28;;;;;;;8.93;3.20;;;;;;;11.60;62.34;103167.88;5090732;28;20073;-67
2022/04/29 10:12:55;;;;;;;10.37;3.40;;;;;;;11.81;62.20;103179.09;5091157;28;20139;-70
2022/04/29 10:15:23;;;;;;;7.38;3.05;;;;;;;11.80;60.04;103179.19;5090963;28;20270;-70
2022/04/29 10:23:22;;;;;;;8.73;3.15;;;;;;;12.24;58.96;103199.75;5090609;28;20055;-70
2022/04/29 10:25:48;;;;;;;16.27;3.30;;;;;;;12.14;58.65;103194.09;5090420;28;20547;-70
2022/04/29 10:28:19;;;;;;;7.32;3.17;;;;;;;12.30;59.58;103196.69;5090687;28;20068;-70
2022/04/29 10:30:45;;;;;;;9.88;3.25;;;;;;;12.68;57.28;103195.28;5090811;28;20031;-69
2022/04/29 10:33:16;;;;;;;11.77;3.08;;;;;;;12.90;57.81;103194.81;5090713;28;20024;-74
2022/04/29 10:35:50;;;;;;;8.38;3.03;;;;;;;13.10;56.66;103195.34;5090420;28;20024;-75
2022/04/29 10:38:39;;;;;;;11.65;3.72;;;;;;;13.27;56.77;103192.47;5090917;28;20189;-73
2022/04/29 10:41:19;;;;;;;6.97;2.90;;;;;;;13.73;55.55;103183.22;5090283;28;20028;-69
2022/04/29 10:43:49;;;;;;;7.43;3.25;;;;;;;13.68;55.39;103180.03;5090406;28;20131;-70
2022/04/29 10:46:16;;;;;;;15.40;3.72;;;;;;;14.28;53.88;103184.81;5090478;28;20031;-71
2022/04/29 10:48:43;;;;;;;9.50;3.35;;;;;;;14.76;53.49;103186.00;5089884;28;20063;-71
2022/04/29 10:51:26;;;;;;;6.55;3.42;;;;;;;15.02;51.77;103178.78;5090157;28;20043;-71
2022/04/29 10:53:56;;;;;;;6.90;3.65;;;;;;;15.33;51.70;103166.66;5090120;28;20032;-70
2022/04/29 10:56:30;;;;;;;7.28;3.83;;;;;;;15.24;49.83;103172.72;5090137;28;20035;-71
2022/04/29 10:59:11;;;;;;;7.32;3.72;;;;;;;15.61;50.45;103164.56;5089980;28;20035;-71
2022/04/29 11:01:38;;;;;;;8.65;3.35;;;;;;;15.60;48.32;103168.25;5090305;28;20028;-71
2022/04/29 11:04:28;;;;;;;14.68;3.50;;;;;;;15.64;47.93;103171.56;5090102;28;20032;-72
2022/04/29 11:06:53;;;;;;;5.10;2.83;;;;;;;15.31;49.05;103173.09;5071629;28;20043;-68
2022/04/29 11:09:24;;;;;;;7.95;3.47;;;;;;;15.43;49.40;103169.50;5089947;28;20089;-72
2022/04/29 11:11:50;;;;;;;9.77;3.30;;;;;;;15.71;49.27;103174.63;5090255;28;20197;-71
2022/04/29 11:14:15;;;;;;;9.88;3.20;;;;;;;15.84;49.54;103176.31;5089992;28;20151;-70
2022/04/29 11:16:53;;;;;;;10.57;3.15;;;;;;;16.15;47.78;103171.25;5090538;28;20473;-71
2022/04/29 11:19:21;;;;;;;13.05;3.38;;;;;;;16.94;46.13;103177.66;5089987;28;20031;-70
2022/04/29 11:24:45;;;;;;;8.35;3.78;;;;;;;16.96;45.23;103173.88;5090072;28;20088;-74
2022/04/29 11:27:10;;;;;;;7.78;3.13;;;;;;;17.41;44.19;103178.28;5089824;28;20051;-71
2022/04/29 11:29:44;;;;;;;4.85;2.80;;;;;;;17.07;44.46;103178.38;5090312;28;20032;-71
2022/04/29 11:32:10;;;;;;;13.32;3.55;;;;;;;16.30;44.49;103174.59;5090323;28;20532;-70
2022/04/29 11:34:51;;;;;;;12.10;3.78;;;;;;;16.03;48.37;103166.81;5089455;28;20099;-71
2022/04/29 11:37:34;;;;;;;11.52;3.63;;;;;;;16.28;46.52;103167.63;5090508;28;20104;-71
2022/04/29 11:40:05;;;;;;;15.75;3.53;;;;;;;17.36;45.29;103175.97;5093735;28;20036;-70
2022/04/29 11:42:31;;;;;;;7.75;3.30;;;;;;;18.12;43.70;103158.84;5094051;28;20452;-70
2022/04/29 11:45:07;;;;;;;6.40;3.08;;;;;;;18.24;41.07;103165.03;5094058;28;20171;-70
2022/04/29 11:47:33;;;;;;;11.35;3.45;;;;;;;18.43;42.73;103162.44;5093292;28;20024;-69
2022/04/29 11:49:59;;;;;;;8.90;2.92;;;;;;;18.66;42.08;103168.50;5094433;28;20135;-69
2022/04/29 11:52:33;;;;;;;7.90;3.42;;;;;;;19.01;39.29;103151.03;5093990;28;20032;-70
2022/04/29 11:55:04;;;;;;;4.95;3.13;;;;;;;19.41;40.91;103157.31;5094219;28;20124;-70
2022/04/29 11:57:31;;;;;;;;;;;;;;;19.18;38.37;103151.31;5094311;28;20031;-69
2022/04/29 11:59:57;;;;;;;8.07;2.78;;;;;;;19.76;38.46;103134.28;5093484;28;19926;-70
2022/04/29 12:02:24;;;;;;;11.18;3.20;;;;;;;20.06;36.00;103140.50;5094165;28;20085;-70